createdAt,value
2018-10-05T00:02:27.051Z,4.70
2018-10-05T00:04:54.391Z,5.10
2018-10-05T00:07:21.763Z,5.00
2018-10-05T00:09:49.049Z,4.80
2018-10-05T00:12:16.369Z,4.83
2018-10-05T00:14:43.645Z,4.80
2018-10-05T00:17:10.974Z,4.80
2018-10-05T00:19:38.276Z,4.63
2018-10-05T00:22:05.808Z,4.63
2018-10-05T00:24:33.164Z,4.77
2018-10-05T00:27:00.433Z,4.03
2018-10-05T00:29:27.760Z,4.10
2018-10-05T00:31:55.061Z,4.87
2018-10-05T00:34:22.419Z,4.20
2018-10-05T00:36:49.721Z,4.87
2018-10-05T00:39:17.052Z,4.30
2018-10-05T00:41:44.342Z,4.13
2018-10-05T00:44:11.626Z,4.10
2018-10-05T00:46:38.913Z,4.47
2018-10-05T00:49:06.169Z,4.40
2018-10-05T00:51:33.586Z,4.00
2018-10-05T00:54:00.972Z,4.63
2018-10-05T00:56:28.310Z,4.30
2018-10-05T00:58:55.638Z,5.00
2018-10-05T01:01:22.905Z,4.47
2018-10-05T01:03:50.232Z,4.53
2018-10-05T01:06:17.506Z,4.20
2018-10-05T01:08:44.823Z,4.60
2018-10-05T01:11:12.076Z,4.67
2018-10-05T01:13:39.412Z,4.47
2018-10-05T01:16:06.757Z,4.80
2018-10-05T01:18:34.034Z,4.40
2018-10-05T01:21:01.468Z,4.37
2018-10-05T01:23:28.744Z,4.43
2018-10-05T01:25:56.068Z,4.33
2018-10-05T01:28:23.347Z,4.57
2018-10-05T01:30:50.719Z,4.27
2018-10-05T01:33:17.969Z,3.87
2018-10-05T01:35:45.285Z,4.30
2018-10-05T01:38:12.667Z,4.00
2018-10-05T01:40:39.898Z,4.20
2018-10-05T01:43:07.227Z,3.87
2018-10-05T01:45:34.529Z,4.07
2018-10-05T01:48:01.836Z,3.80
2018-10-05T01:50:29.131Z,3.97
2018-10-05T01:52:56.551Z,3.90
2018-10-05T01:55:23.881Z,3.80
2018-10-05T01:57:51.144Z,3.83
2018-10-05T02:00:18.460Z,3.70
2018-10-05T02:02:45.861Z,4.07
2018-10-05T02:05:13.118Z,3.73
2018-10-05T02:07:40.476Z,3.77
2018-10-05T02:10:07.770Z,3.57
2018-10-05T02:12:35.101Z,3.83
2018-10-05T02:15:02.411Z,3.40
2018-10-05T02:17:29.756Z,3.63
2018-10-05T02:19:57.008Z,3.67
2018-10-05T02:22:24.310Z,3.30
2018-10-05T02:24:51.584Z,3.90
2018-10-05T02:27:18.908Z,3.93
2018-10-05T02:29:46.188Z,4.17
2018-10-05T02:32:13.539Z,4.23
2018-10-05T02:34:40.823Z,3.63
2018-10-05T02:37:08.176Z,3.43
2018-10-05T02:39:35.416Z,3.70
2018-10-05T02:42:03.577Z,3.40
2018-10-05T02:44:30.858Z,3.83
2018-10-05T02:46:58.270Z,3.50
2018-10-05T02:49:25.563Z,3.30
2018-10-05T02:51:52.858Z,3.20
2018-10-05T02:54:20.104Z,3.30
2018-10-05T02:56:47.384Z,2.97
2018-10-05T02:59:14.703Z,3.00
2018-10-05T03:01:53.485Z,2.80
2018-10-05T03:04:20.753Z,3.50
2018-10-05T03:06:48.067Z,3.23
2018-10-05T03:09:15.341Z,3.30
2018-10-05T03:11:42.745Z,3.57
2018-10-05T03:14:10.019Z,3.40
2018-10-05T03:16:37.288Z,2.77
2018-10-05T03:19:04.591Z,3.13
2018-10-05T03:21:31.846Z,3.20
2018-10-05T03:23:59.137Z,3.33
2018-10-05T03:26:26.419Z,3.10
2018-10-05T03:28:53.703Z,3.20
2018-10-05T03:31:21.005Z,3.63
2018-10-05T03:33:48.282Z,3.37
2018-10-05T03:36:15.580Z,3.27
2018-10-05T03:38:42.841Z,3.17
2018-10-05T03:41:10.226Z,3.20
2018-10-05T03:43:37.528Z,3.13
2018-10-05T03:46:04.821Z,3.00
2018-10-05T03:48:32.125Z,3.70
2018-10-05T03:50:59.417Z,3.23
2018-10-05T03:53:26.699Z,3.43
2018-10-05T03:55:53.985Z,3.03
2018-10-05T03:58:22.043Z,3.10
2018-10-05T04:00:49.379Z,3.00
2018-10-05T04:03:16.660Z,2.90
2018-10-05T04:05:43.913Z,3.40
2018-10-05T04:08:11.294Z,3.50
2018-10-05T04:10:38.575Z,3.20
2018-10-05T04:13:05.984Z,3.40
2018-10-05T04:15:33.333Z,3.07
2018-10-05T04:18:00.710Z,3.30
2018-10-05T04:20:27.978Z,3.33
2018-10-05T04:22:55.331Z,3.37
2018-10-05T04:25:22.625Z,3.10
2018-10-05T04:27:49.902Z,3.30
2018-10-05T04:30:17.218Z,3.10
2018-10-05T04:32:53.489Z,3.63
2018-10-05T04:35:20.775Z,3.60
2018-10-05T04:37:48.057Z,3.37
2018-10-05T04:40:15.394Z,3.83
2018-10-05T04:42:42.689Z,3.77
2018-10-05T04:45:10.025Z,3.50
2018-10-05T04:47:37.353Z,3.40
2018-10-05T04:50:04.681Z,3.90
2018-10-05T04:52:31.972Z,3.70
2018-10-05T04:54:59.363Z,3.53
2018-10-05T04:57:26.711Z,4.10
2018-10-05T04:59:53.995Z,4.00
2018-10-05T05:02:21.349Z,3.70
2018-10-05T05:04:48.629Z,4.17
2018-10-05T05:07:15.934Z,4.27
2018-10-05T05:09:43.225Z,4.17
2018-10-05T05:12:10.575Z,3.60
2018-10-05T05:14:37.840Z,3.97
2018-10-05T05:17:05.136Z,4.13
2018-10-05T05:19:32.443Z,3.70
2018-10-05T05:21:59.672Z,4.37
2018-10-05T05:24:26.959Z,4.13
2018-10-05T05:26:54.304Z,3.77
2018-10-05T05:29:21.600Z,4.20
2018-10-05T05:31:48.886Z,4.30
2018-10-05T05:34:16.163Z,4.40
2018-10-05T05:36:43.485Z,5.07
2018-10-05T05:39:10.778Z,5.57
2018-10-05T05:41:38.126Z,5.37
2018-10-05T05:44:05.458Z,5.27
2018-10-05T05:46:32.984Z,5.70
2018-10-05T05:49:00.322Z,6.10
2018-10-05T05:51:27.610Z,6.70
2018-10-05T05:53:54.995Z,6.30
2018-10-05T05:56:22.263Z,5.87
2018-10-05T05:58:49.651Z,6.17
2018-10-05T06:01:16.992Z,6.33
2018-10-05T06:03:44.294Z,6.77
2018-10-05T06:06:11.654Z,7.07
2018-10-05T06:08:38.907Z,7.83
2018-10-05T06:11:06.779Z,6.93
2018-10-05T06:13:34.090Z,7.20
2018-10-05T06:16:01.478Z,7.53
2018-10-05T06:18:28.744Z,8.07
2018-10-05T06:20:56.072Z,7.50
2018-10-05T06:23:23.912Z,7.13
2018-10-05T06:25:51.277Z,7.57
2018-10-05T06:28:18.642Z,7.90
2018-10-05T06:30:45.929Z,7.33
2018-10-05T06:33:13.230Z,7.87
2018-10-05T06:35:40.516Z,7.93
2018-10-05T06:38:07.947Z,7.33
2018-10-05T06:40:35.314Z,7.47
2018-10-05T06:43:02.579Z,7.97
2018-10-05T06:45:29.926Z,8.40
2018-10-05T06:47:57.194Z,7.37
2018-10-05T06:50:24.722Z,8.03
2018-10-05T06:52:52.490Z,7.80
2018-10-05T06:55:19.858Z,7.70
2018-10-05T06:57:47.144Z,7.50
2018-10-05T07:00:14.539Z,7.43
2018-10-05T07:02:50.073Z,7.50
2018-10-05T07:05:17.379Z,7.90
2018-10-05T07:07:44.775Z,7.53
2018-10-05T07:10:11.983Z,7.30
2018-10-05T07:12:39.329Z,7.00
2018-10-05T07:15:06.672Z,7.17
2018-10-05T07:17:33.983Z,6.80
2018-10-05T07:20:01.500Z,7.07
2018-10-05T07:22:28.806Z,7.83
2018-10-05T07:24:56.107Z,7.50
2018-10-05T07:27:23.500Z,7.53
2018-10-05T07:29:50.750Z,7.27
2018-10-05T07:32:18.119Z,7.63
2018-10-05T07:34:45.457Z,7.63
2018-10-05T07:37:12.790Z,6.47
2018-10-05T07:39:40.019Z,7.03
2018-10-05T07:42:07.334Z,7.00
2018-10-05T07:44:34.684Z,6.87
2018-10-05T07:47:01.959Z,6.90
2018-10-05T07:49:29.343Z,6.73
2018-10-05T07:51:56.665Z,6.97
2018-10-05T07:54:23.969Z,6.70
2018-10-05T07:56:51.313Z,6.90
2018-10-05T07:59:18.605Z,7.00
2018-10-05T08:01:45.985Z,6.90
2018-10-05T08:04:13.287Z,6.70
2018-10-05T08:06:40.588Z,6.03
2018-10-05T08:09:07.874Z,6.47
2018-10-05T08:11:35.197Z,6.60
2018-10-05T08:14:02.528Z,6.90
2018-10-05T08:16:29.800Z,6.50
2018-10-05T08:18:57.120Z,6.63
2018-10-05T08:21:24.437Z,6.33
2018-10-05T08:23:51.777Z,6.17
2018-10-05T08:26:19.416Z,6.60
2018-10-05T08:28:46.926Z,5.87
2018-10-05T08:31:14.279Z,5.47
2018-10-05T08:33:41.684Z,4.50
2018-10-05T08:36:09.063Z,4.93
2018-10-05T08:38:36.438Z,5.13
2018-10-05T08:41:03.787Z,4.97
2018-10-05T08:43:31.066Z,4.30
2018-10-05T08:45:58.359Z,4.40
2018-10-05T08:48:25.657Z,4.20
2018-10-05T08:50:53.063Z,3.80
2018-10-05T08:53:20.574Z,4.03
2018-10-05T08:55:47.954Z,3.77
2018-10-05T08:58:15.367Z,3.80
2018-10-05T09:00:42.736Z,3.67
2018-10-05T09:03:10.120Z,3.50
2018-10-05T09:05:37.515Z,3.50
2018-10-05T09:08:05.059Z,3.27
2018-10-05T09:10:32.445Z,3.47
2018-10-05T09:12:59.767Z,4.13
2018-10-05T09:15:27.335Z,3.60
2018-10-05T09:17:54.729Z,3.40
2018-10-05T09:20:22.191Z,3.40
2018-10-05T09:22:49.527Z,3.13
2018-10-05T09:25:16.950Z,3.40
2018-10-05T09:27:44.260Z,3.00
2018-10-05T09:30:12.094Z,2.60
2018-10-05T09:32:39.449Z,2.50
2018-10-05T09:35:06.727Z,2.87
2018-10-05T09:37:34.216Z,2.83
2018-10-05T09:40:01.506Z,2.50
2018-10-05T09:42:28.963Z,2.20
2018-10-05T09:44:56.832Z,2.80
2018-10-05T09:47:24.537Z,2.60
2018-10-05T09:49:51.795Z,2.57
2018-10-05T09:52:19.207Z,2.67
2018-10-05T09:54:46.412Z,2.20
2018-10-05T09:57:13.157Z,2.33
2018-10-05T09:59:40.502Z,2.50
2018-10-05T10:02:13.456Z,2.73
2018-10-05T10:04:40.779Z,2.13
2018-10-05T10:07:08.993Z,2.10
2018-10-05T10:09:36.402Z,2.20
2018-10-05T10:12:03.678Z,2.23
2018-10-05T10:14:31.124Z,2.30
2018-10-05T10:16:58.362Z,2.23
2018-10-05T10:19:25.696Z,2.30
2018-10-05T10:21:53.125Z,2.00
2018-10-05T10:24:20.570Z,2.23
2018-10-05T10:26:47.968Z,2.47
2018-10-05T10:29:15.357Z,2.10
2018-10-05T10:31:42.695Z,2.10
2018-10-05T10:34:10.147Z,2.10
2018-10-05T10:36:37.423Z,2.40
2018-10-05T10:39:06.720Z,2.17
2018-10-05T10:41:33.997Z,2.03
2018-10-05T10:44:01.346Z,2.00
2018-10-05T10:46:28.618Z,2.10
2018-10-05T10:48:55.926Z,1.80
2018-10-05T10:51:23.328Z,2.13
2018-10-05T10:53:50.755Z,2.03
2018-10-05T10:56:18.013Z,2.60
2018-10-05T10:58:45.291Z,2.10
2018-10-05T11:01:12.596Z,1.80
2018-10-05T11:03:39.944Z,1.93
2018-10-05T11:06:08.834Z,2.30
2018-10-05T11:08:36.157Z,2.00
2018-10-05T11:11:03.520Z,1.90
2018-10-05T11:13:30.866Z,2.10
2018-10-05T11:15:58.286Z,1.83
2018-10-05T11:18:25.649Z,2.03
2018-10-05T11:20:53.087Z,1.80
2018-10-05T11:23:20.520Z,2.00
2018-10-05T11:25:47.958Z,2.30
2018-10-05T11:28:15.524Z,1.80
2018-10-05T11:30:42.927Z,1.70
2018-10-05T11:33:10.372Z,1.70
2018-10-05T11:35:37.682Z,2.03
2018-10-05T11:38:06.337Z,1.80
2018-10-05T11:40:33.947Z,1.43
2018-10-05T11:43:02.156Z,1.60
2018-10-05T11:45:29.527Z,1.77
2018-10-05T11:47:56.816Z,1.62
2018-10-05T11:50:24.709Z,1.30
2018-10-05T11:52:52.217Z,1.52
2018-10-05T11:55:19.584Z,1.57
2018-10-05T11:57:46.886Z,1.67
2018-10-05T12:00:17.281Z,1.50
2018-10-05T12:02:45.540Z,1.40
2018-10-05T12:05:13.001Z,1.75
2018-10-05T12:07:40.209Z,1.60
2018-10-05T12:10:07.497Z,1.80
2018-10-05T12:12:34.803Z,1.60
2018-10-05T12:15:02.138Z,1.90
2018-10-05T12:17:36.267Z,1.90
2018-10-05T12:20:03.967Z,1.95
2018-10-05T12:22:31.569Z,1.80
2018-10-05T12:24:59.364Z,1.42
2018-10-05T12:27:26.952Z,1.50
2018-10-05T12:29:54.925Z,1.67
2018-10-05T12:32:22.428Z,1.67
2018-10-05T12:34:49.794Z,1.90
2018-10-05T12:37:17.183Z,1.92
2018-10-05T12:39:44.572Z,1.75
2018-10-05T12:42:12.530Z,1.70
2018-10-05T12:44:39.816Z,1.82
2018-10-05T12:47:07.338Z,1.72
2018-10-05T12:49:34.692Z,1.75
2018-10-05T12:52:10.568Z,1.98
2018-10-05T12:54:38.632Z,1.62
2018-10-05T12:57:06.016Z,1.85
2018-10-05T12:59:33.379Z,1.67
2018-10-05T13:02:00.648Z,1.90
2018-10-05T13:04:27.986Z,1.80
2018-10-05T13:06:55.202Z,1.67
2018-10-05T13:09:22.610Z,1.87
2018-10-05T13:11:50.107Z,2.12
2018-10-05T13:14:17.411Z,2.12
2018-10-05T13:16:44.745Z,1.90
2018-10-05T13:19:12.199Z,1.77
2018-10-05T13:21:39.593Z,2.12
2018-10-05T13:24:06.978Z,1.85
2018-10-05T13:26:35.227Z,1.52
2018-10-05T13:29:03.274Z,2.15
2018-10-05T13:31:32.204Z,2.10
2018-10-05T13:33:59.586Z,1.90
2018-10-05T13:36:26.794Z,1.80
2018-10-05T13:38:54.369Z,2.00
2018-10-05T13:41:21.624Z,2.10
2018-10-05T13:43:48.965Z,2.00
2018-10-05T13:46:16.332Z,1.95
2018-10-05T13:48:43.673Z,2.40
2018-10-05T13:51:11.720Z,2.00
2018-10-05T13:53:38.993Z,2.20
2018-10-05T13:56:06.937Z,1.82
2018-10-05T13:58:34.267Z,2.05
2018-10-05T14:01:01.567Z,2.20
2018-10-05T14:03:28.840Z,2.10
2018-10-05T14:05:56.261Z,2.30
2018-10-05T14:08:23.521Z,2.10
2018-10-05T14:10:50.998Z,2.37
2018-10-05T14:13:18.262Z,2.08
2018-10-05T14:15:45.568Z,2.42
2018-10-05T14:18:12.866Z,2.20
2018-10-05T14:20:40.340Z,2.47
2018-10-05T14:23:07.469Z,1.98
2018-10-05T14:25:35.466Z,2.00
2018-10-05T14:28:02.930Z,2.10
2018-10-05T14:30:30.452Z,2.22
2018-10-05T14:32:57.792Z,2.20
2018-10-05T14:35:25.059Z,2.35
2018-10-05T14:37:52.398Z,2.17
2018-10-05T14:40:19.743Z,2.10
2018-10-05T14:42:47.162Z,2.25
2018-10-05T14:45:14.447Z,2.10
2018-10-05T14:47:43.028Z,2.05
2018-10-05T14:50:10.450Z,2.52
2018-10-05T14:52:38.457Z,1.90
2018-10-05T14:55:05.872Z,1.98
2018-10-05T14:57:33.264Z,1.98
2018-10-05T15:00:00.561Z,2.22
2018-10-05T15:02:27.920Z,2.05
2018-10-05T15:04:55.769Z,2.17
2018-10-05T15:07:23.156Z,2.33
2018-10-05T15:09:50.475Z,2.33
2018-10-05T15:12:17.859Z,2.10
2018-10-05T15:14:45.161Z,2.00
2018-10-05T15:17:13.582Z,1.98
2018-10-05T15:19:41.005Z,2.35
2018-10-05T15:22:08.549Z,2.12
2018-10-05T15:24:35.846Z,1.98
2018-10-05T15:27:03.327Z,2.17
2018-10-05T15:29:30.739Z,2.33
2018-10-05T15:31:58.075Z,2.87
2018-10-05T15:34:25.433Z,2.20
2018-10-05T15:36:52.793Z,2.30
2018-10-05T15:39:20.229Z,1.90
2018-10-05T15:41:47.611Z,2.20
2018-10-05T15:44:14.951Z,2.20
2018-10-05T15:46:53.504Z,2.30
2018-10-05T15:49:20.823Z,2.30
2018-10-05T15:51:48.442Z,2.20
2018-10-05T15:54:15.790Z,2.50
2018-10-05T15:56:43.111Z,2.10
2018-10-05T15:59:10.566Z,2.30
2018-10-05T16:01:38.598Z,2.67
2018-10-05T16:04:05.986Z,2.60
2018-10-05T16:06:34.114Z,2.30
2018-10-05T16:09:01.570Z,2.47
2018-10-05T16:11:28.892Z,2.40
2018-10-05T16:13:56.229Z,2.27
2018-10-05T16:16:23.506Z,2.20
2018-10-05T16:18:50.820Z,2.37
2018-10-05T16:21:18.147Z,2.10
2018-10-05T16:23:45.557Z,1.97
2018-10-05T16:26:12.971Z,2.37
2018-10-05T16:28:40.285Z,1.80
2018-10-05T16:31:07.623Z,2.53
2018-10-05T16:33:35.039Z,2.20
2018-10-05T16:36:02.365Z,2.40
2018-10-05T16:38:29.658Z,2.37
2018-10-05T16:40:57.057Z,2.30
2018-10-05T16:43:24.539Z,2.43
2018-10-05T16:45:53.214Z,2.37
2018-10-05T16:48:20.620Z,2.30
2018-10-05T16:50:48.009Z,2.53
2018-10-05T16:53:15.403Z,2.27
2018-10-05T16:55:42.869Z,2.47
2018-10-05T16:58:10.263Z,2.90
2018-10-05T17:00:37.606Z,3.07
2018-10-05T17:03:07.020Z,2.60
2018-10-05T17:05:34.320Z,2.60
2018-10-05T17:08:01.744Z,2.80
2018-10-05T17:10:29.160Z,2.87
2018-10-05T17:12:56.506Z,2.60
2018-10-05T17:15:23.866Z,2.97
2018-10-05T17:17:51.204Z,3.70
2018-10-05T17:20:18.518Z,3.50
2018-10-05T17:22:45.816Z,3.57
2018-10-05T17:25:13.108Z,3.53
2018-10-05T17:27:40.458Z,3.50
2018-10-05T17:30:07.828Z,3.67
2018-10-05T17:32:35.270Z,3.50
2018-10-05T17:35:02.580Z,3.37
2018-10-05T17:37:29.903Z,3.70
2018-10-05T17:39:57.208Z,3.50
2018-10-05T17:42:24.540Z,3.30
2018-10-05T17:44:51.886Z,4.20
2018-10-05T17:47:19.197Z,3.60
2018-10-05T17:49:46.548Z,3.77
2018-10-05T17:52:13.843Z,3.63
2018-10-05T17:54:41.269Z,3.57
2018-10-05T17:57:08.578Z,3.30
2018-10-05T17:59:35.994Z,3.37
2018-10-05T18:02:03.321Z,3.37
2018-10-05T18:04:30.678Z,3.30
2018-10-05T18:06:58.077Z,3.83
2018-10-05T18:09:25.446Z,3.97
2018-10-05T18:11:52.907Z,3.70
2018-10-05T18:14:20.200Z,3.77
2018-10-05T18:16:47.639Z,4.17
2018-10-05T18:19:14.964Z,4.20
2018-10-05T18:21:42.495Z,5.37
2018-10-05T18:24:09.819Z,4.60
2018-10-05T18:26:37.125Z,4.90
2018-10-05T18:29:04.769Z,4.40
2018-10-05T18:31:32.083Z,4.40
2018-10-05T18:33:59.416Z,4.17
2018-10-05T18:36:26.679Z,4.07
2018-10-05T18:38:54.026Z,4.13
2018-10-05T18:41:21.416Z,3.87
2018-10-05T18:43:48.606Z,4.30
2018-10-05T18:46:15.963Z,4.50
2018-10-05T18:48:43.294Z,4.53
2018-10-05T18:51:10.627Z,4.03
2018-10-05T18:53:38.009Z,4.17
2018-10-05T18:56:16.780Z,4.57
2018-10-05T18:58:44.158Z,4.80
2018-10-05T19:01:11.458Z,4.43
2018-10-05T19:03:38.790Z,4.57
2018-10-05T19:06:06.106Z,4.13
2018-10-05T19:08:33.412Z,4.83
2018-10-05T19:11:00.706Z,4.43
2018-10-05T19:13:28.071Z,4.87
2018-10-05T19:15:55.554Z,4.50
2018-10-05T19:18:22.868Z,4.33
2018-10-05T19:20:50.194Z,4.17
2018-10-05T19:23:17.578Z,3.53
2018-10-05T19:25:44.926Z,4.33
2018-10-05T19:28:12.273Z,4.17
2018-10-05T19:30:39.649Z,4.40
2018-10-05T19:33:07.115Z,4.63
2018-10-05T19:35:34.449Z,4.37
2018-10-05T19:38:01.780Z,4.27
2018-10-05T19:40:29.118Z,4.57
2018-10-05T19:42:56.546Z,4.00
2018-10-05T19:45:23.900Z,4.63
2018-10-05T19:47:51.309Z,4.57
2018-10-05T19:50:19.200Z,4.23
2018-10-05T19:52:46.623Z,5.20
2018-10-05T19:55:13.953Z,4.70
2018-10-05T19:57:41.305Z,4.87
2018-10-05T20:00:08.767Z,4.60
2018-10-05T20:02:36.028Z,4.50
2018-10-05T20:05:03.370Z,4.00
2018-10-05T20:07:30.732Z,4.60
2018-10-05T20:09:58.156Z,4.80
2018-10-05T20:12:25.499Z,4.37
2018-10-05T20:14:52.840Z,4.87
2018-10-05T20:17:20.194Z,4.50
2018-10-05T20:19:47.489Z,4.37
2018-10-05T20:22:14.778Z,4.93
2018-10-05T20:24:42.076Z,4.63
2018-10-05T20:27:09.688Z,4.87
2018-10-05T20:29:37.027Z,4.70
2018-10-05T20:32:04.374Z,4.77
2018-10-05T20:34:31.773Z,4.73
2018-10-05T20:36:59.339Z,4.83
2018-10-05T20:39:26.506Z,5.00
2018-10-05T20:41:53.941Z,4.43
2018-10-05T20:44:21.304Z,4.60
2018-10-05T20:46:48.648Z,4.50
2018-10-05T20:49:16.049Z,4.93
2018-10-05T20:51:43.433Z,4.20
2018-10-05T20:54:10.765Z,4.50
2018-10-05T20:56:38.168Z,4.47
2018-10-05T20:59:05.504Z,4.57
2018-10-05T21:01:32.942Z,4.57
2018-10-05T21:04:00.199Z,5.07
2018-10-05T21:06:27.510Z,5.10
2018-10-05T21:08:54.837Z,4.73
2018-10-05T21:11:22.230Z,5.10
2018-10-05T21:13:49.564Z,5.00
2018-10-05T21:16:16.925Z,4.83
2018-10-05T21:18:44.325Z,4.60
2018-10-05T21:21:11.637Z,4.77
2018-10-05T21:23:38.981Z,4.93
2018-10-05T21:26:06.373Z,4.97
2018-10-05T21:28:33.716Z,4.93
2018-10-05T21:31:01.020Z,4.50
2018-10-05T21:33:28.457Z,4.67
2018-10-05T21:35:55.728Z,4.93
2018-10-05T21:38:23.136Z,4.97
2018-10-05T21:40:50.436Z,4.57
2018-10-05T21:43:17.710Z,4.80
2018-10-05T21:45:44.996Z,4.60
2018-10-05T21:48:12.314Z,4.97
2018-10-05T21:50:39.601Z,4.87
2018-10-05T21:53:07.005Z,5.10
2018-10-05T21:55:34.302Z,4.77
2018-10-05T21:58:01.699Z,4.70
2018-10-05T22:00:34.792Z,4.63
2018-10-05T22:03:02.045Z,4.80
2018-10-05T22:05:29.361Z,5.23
2018-10-05T22:07:56.605Z,4.87
2018-10-05T22:10:23.876Z,5.00
2018-10-05T22:12:51.144Z,4.57
2018-10-05T22:15:18.472Z,5.60
2018-10-05T22:17:45.755Z,4.70
2018-10-05T22:20:13.068Z,4.80
2018-10-05T22:22:40.315Z,4.60
2018-10-05T22:25:07.623Z,4.73
2018-10-05T22:27:34.928Z,5.10
2018-10-05T22:30:02.245Z,4.83
2018-10-05T22:32:29.605Z,4.47
2018-10-05T22:34:56.907Z,5.00
2018-10-05T22:37:24.143Z,5.00
2018-10-05T22:39:51.405Z,4.80
2018-10-05T22:42:18.717Z,5.87
2018-10-05T22:44:45.995Z,5.43
2018-10-05T22:47:13.297Z,5.17
2018-10-05T22:49:40.589Z,5.23
2018-10-05T22:52:07.851Z,5.30
2018-10-05T22:54:35.151Z,5.30
2018-10-05T22:57:02.429Z,5.03
2018-10-05T22:59:29.722Z,5.03
2018-10-05T23:01:57.012Z,4.90
2018-10-05T23:04:24.291Z,5.63
2018-10-05T23:06:51.606Z,5.37
2018-10-05T23:09:18.861Z,5.10
2018-10-05T23:11:46.175Z,5.97
2018-10-05T23:14:13.464Z,5.20
2018-10-05T23:16:40.866Z,5.07
2018-10-05T23:19:08.138Z,5.13
2018-10-05T23:21:35.423Z,4.90
2018-10-05T23:24:02.720Z,5.00
2018-10-05T23:26:30.051Z,4.50
2018-10-05T23:28:57.318Z,5.10
2018-10-05T23:31:24.680Z,5.20
2018-10-05T23:33:51.956Z,5.17
2018-10-05T23:36:19.226Z,4.37
2018-10-05T23:38:46.502Z,5.00
2018-10-05T23:41:13.853Z,4.97
2018-10-05T23:43:41.106Z,5.20
2018-10-05T23:46:08.534Z,4.83
2018-10-05T23:48:35.952Z,5.37
2018-10-05T23:51:03.304Z,5.17
2018-10-05T23:53:30.580Z,5.20
2018-10-05T23:55:57.813Z,5.23
2018-10-05T23:58:25.116Z,5.40
